createdAt,value
2023-03-10T00:01:57.617Z,32.03
2023-03-10T00:04:24.601Z,33.88
2023-03-10T00:06:51.606Z,33.10
2023-03-10T00:09:18.856Z,31.08
2023-03-10T00:11:46.091Z,29.92
2023-03-10T00:14:13.134Z,30.13
2023-03-10T00:16:40.296Z,32.67
2023-03-10T00:19:07.235Z,32.60
2023-03-10T00:21:34.403Z,29.63
2023-03-10T00:24:01.315Z,30.67
2023-03-10T00:26:28.236Z,35.35
2023-03-10T00:28:55.197Z,29.75
2023-03-10T00:31:22.181Z,32.92
2023-03-10T00:33:49.172Z,34.05
2023-03-10T00:36:16.106Z,32.30
2023-03-10T00:38:43.113Z,32.75
2023-03-10T00:41:10.056Z,33.22
2023-03-10T00:43:37.002Z,31.58
2023-03-10T00:46:03.955Z,28.88
2023-03-10T00:48:30.935Z,30.30
2023-03-10T00:50:57.879Z,31.02
2023-03-10T00:53:24.811Z,32.83
2023-03-10T00:55:53.860Z,31.75
2023-03-10T00:58:20.860Z,29.73
2023-03-10T01:00:47.773Z,31.02
2023-03-10T01:03:14.722Z,29.25
2023-03-10T01:05:41.651Z,30.13
2023-03-10T01:08:08.603Z,29.92
2023-03-10T01:10:35.507Z,28.38
2023-03-10T01:13:02.459Z,30.20
2023-03-10T01:15:29.383Z,29.80
2023-03-10T01:17:56.344Z,28.92
2023-03-10T01:20:23.243Z,31.63
2023-03-10T01:22:50.165Z,28.67
2023-03-10T01:25:17.106Z,30.88
2023-03-10T01:27:44.047Z,30.45
2023-03-10T01:30:10.955Z,27.20
2023-03-10T01:32:38.092Z,26.98
2023-03-10T01:35:05.052Z,28.58
2023-03-10T01:37:32.033Z,29.70
2023-03-10T01:39:58.940Z,27.27
2023-03-10T01:42:25.932Z,27.70
2023-03-10T01:44:52.908Z,28.80
2023-03-10T01:47:19.821Z,27.58
2023-03-10T01:49:46.767Z,26.55
2023-03-10T01:52:15.937Z,28.25
2023-03-10T01:54:42.920Z,25.15
2023-03-10T01:57:09.954Z,29.85
2023-03-10T01:59:36.934Z,27.75
2023-03-10T02:02:03.888Z,26.33
2023-03-10T02:04:30.845Z,26.40
2023-03-10T02:06:57.749Z,28.73
2023-03-10T02:09:24.690Z,28.15
2023-03-10T02:11:51.849Z,27.58
2023-03-10T02:14:18.838Z,27.67
2023-03-10T02:16:45.871Z,26.58
2023-03-10T02:19:12.874Z,28.38
2023-03-10T02:21:39.900Z,27.52
2023-03-10T02:24:06.884Z,26.85
2023-03-10T02:26:33.851Z,25.83
2023-03-10T02:29:00.876Z,26.83
2023-03-10T02:31:27.816Z,30.90
2023-03-10T02:33:54.748Z,28.02
2023-03-10T02:36:21.714Z,29.05
2023-03-10T02:38:48.675Z,26.55
2023-03-10T02:41:15.584Z,25.13
2023-03-10T02:43:45.433Z,27.67
2023-03-10T02:46:12.506Z,26.02
2023-03-10T02:48:39.464Z,25.73
2023-03-10T02:51:06.490Z,26.17
2023-03-10T02:53:33.519Z,26.45
2023-03-10T02:56:00.444Z,27.15
2023-03-10T02:58:27.378Z,30.35
2023-03-10T03:00:54.312Z,28.02
2023-03-10T03:03:21.294Z,27.80
2023-03-10T03:05:48.195Z,30.42
2023-03-10T03:08:15.159Z,29.08
2023-03-10T03:10:42.123Z,29.63
2023-03-10T03:13:09.047Z,28.23
2023-03-10T03:15:35.987Z,29.38
2023-03-10T03:18:02.904Z,31.00
2023-03-10T03:20:29.868Z,30.95
2023-03-10T03:22:56.816Z,28.67
2023-03-10T03:25:23.776Z,31.67
2023-03-10T03:27:50.742Z,29.73
2023-03-10T03:30:18.617Z,32.33
2023-03-10T03:32:46.847Z,34.58
2023-03-10T03:35:13.834Z,33.55
2023-03-10T03:37:40.742Z,33.80
2023-03-10T03:40:07.663Z,35.45
2023-03-10T03:42:34.699Z,36.33
2023-03-10T03:45:01.617Z,37.05
2023-03-10T03:47:28.511Z,33.40
2023-03-10T03:49:55.435Z,34.95
2023-03-10T03:52:22.341Z,36.17
2023-03-10T03:54:49.261Z,37.75
2023-03-10T03:57:16.167Z,35.30
2023-03-10T03:59:43.107Z,35.17
2023-03-10T04:02:10.011Z,32.95
2023-03-10T04:04:36.952Z,33.67
2023-03-10T04:07:03.847Z,29.70
2023-03-10T04:09:30.752Z,29.67
2023-03-10T04:11:57.664Z,30.85
2023-03-10T04:14:24.587Z,26.02
2023-03-10T04:16:51.484Z,26.65
2023-03-10T04:19:18.390Z,25.60
2023-03-10T04:21:45.301Z,25.50
2023-03-10T04:24:12.221Z,26.48
2023-03-10T04:26:39.127Z,25.77
2023-03-10T04:29:06.030Z,28.50
2023-03-10T04:31:32.986Z,26.17
2023-03-10T04:33:59.972Z,26.92
2023-03-10T04:36:26.899Z,24.55
2023-03-10T04:38:53.796Z,25.88
2023-03-10T04:41:20.734Z,25.00
2023-03-10T04:43:48.131Z,23.63
2023-03-10T04:46:15.181Z,25.70
2023-03-10T04:48:42.140Z,24.88
2023-03-10T04:51:09.031Z,25.40
2023-03-10T04:53:35.945Z,23.15
2023-03-10T04:56:02.832Z,23.30
2023-03-10T04:58:29.840Z,23.45
2023-03-10T05:01:03.333Z,23.70
2023-03-10T05:03:30.681Z,22.77
2023-03-10T05:05:57.611Z,23.65
2023-03-10T05:08:24.535Z,21.45
2023-03-10T05:10:51.442Z,23.80
2023-03-10T05:13:18.376Z,20.83
2023-03-10T05:15:45.309Z,21.40
2023-03-10T05:18:12.234Z,24.25
2023-03-10T05:20:39.189Z,20.92
2023-03-10T05:23:06.120Z,21.15
2023-03-10T05:25:33.052Z,22.40
2023-03-10T05:27:59.990Z,20.85
2023-03-10T05:30:26.924Z,21.27
2023-03-10T05:32:53.885Z,21.55
2023-03-10T05:35:20.833Z,21.17
2023-03-10T05:37:47.728Z,22.42
2023-03-10T05:40:14.649Z,20.33
2023-03-10T05:42:41.565Z,23.08
2023-03-10T05:45:08.489Z,21.70
2023-03-10T05:47:35.401Z,23.33
2023-03-10T05:50:02.376Z,23.58
2023-03-10T05:52:29.285Z,24.88
2023-03-10T05:54:56.204Z,22.77
2023-03-10T05:57:23.124Z,23.92
2023-03-10T05:59:50.052Z,22.95
2023-03-10T06:02:17.012Z,23.67
2023-03-10T06:04:43.953Z,22.63
2023-03-10T06:07:10.847Z,21.98
2023-03-10T06:09:37.744Z,24.17
2023-03-10T06:12:04.644Z,22.95
2023-03-10T06:14:31.560Z,23.13
2023-03-10T06:16:58.473Z,22.92
2023-03-10T06:19:25.373Z,24.35
2023-03-10T06:21:52.316Z,24.42
2023-03-10T06:24:19.236Z,23.20
2023-03-10T06:26:46.136Z,23.38
2023-03-10T06:29:13.051Z,23.65
2023-03-10T06:31:40.013Z,26.65
2023-03-10T06:34:06.969Z,22.63
2023-03-10T06:36:33.877Z,22.95
2023-03-10T06:39:00.785Z,25.45
2023-03-10T06:41:27.692Z,24.17
2023-03-10T06:43:54.576Z,23.35
2023-03-10T06:46:21.558Z,24.17
2023-03-10T06:48:48.498Z,24.48
2023-03-10T06:51:15.465Z,22.55
2023-03-10T06:53:42.355Z,23.05
2023-03-10T06:56:09.269Z,26.17
2023-03-10T06:58:36.181Z,25.17
2023-03-10T07:01:04.102Z,25.55
2023-03-10T07:03:31.066Z,26.13
2023-03-10T07:05:58.227Z,24.27
2023-03-10T07:08:25.145Z,24.98
2023-03-10T07:10:52.330Z,24.15
2023-03-10T07:13:19.216Z,26.05
2023-03-10T07:15:46.134Z,26.90
2023-03-10T07:18:13.035Z,27.02
2023-03-10T07:20:39.974Z,27.20
2023-03-10T07:23:06.887Z,27.60
2023-03-10T07:25:33.794Z,26.83
2023-03-10T07:28:00.706Z,26.58
2023-03-10T07:30:27.632Z,26.65
2023-03-10T07:32:57.852Z,28.38
2023-03-10T07:35:24.768Z,27.42
2023-03-10T07:38:02.744Z,26.55
2023-03-10T07:40:38.514Z,24.48
2023-03-10T07:43:07.455Z,25.65
2023-03-10T07:45:34.578Z,26.98
2023-03-10T07:48:01.587Z,26.42
2023-03-10T07:50:28.548Z,24.65
2023-03-10T07:53:01.534Z,24.52
2023-03-10T07:55:28.576Z,25.92
2023-03-10T07:57:57.993Z,26.50
2023-03-10T08:00:26.570Z,23.95
2023-03-10T08:03:03.353Z,25.52
2023-03-10T08:05:30.294Z,26.77
2023-03-10T08:07:57.313Z,26.52
2023-03-10T08:10:30.501Z,24.92
2023-03-10T08:12:57.482Z,28.27
2023-03-10T08:15:24.382Z,28.35
2023-03-10T08:17:51.269Z,26.27
2023-03-10T08:20:18.238Z,28.98
2023-03-10T08:22:45.177Z,27.70
2023-03-10T08:25:14.040Z,26.60
2023-03-10T08:27:41.391Z,26.25
2023-03-10T08:30:17.027Z,26.20
2023-03-10T08:32:50.656Z,26.58
2023-03-10T08:35:17.791Z,28.00
2023-03-10T08:37:44.798Z,28.25
2023-03-10T08:40:11.767Z,28.48
2023-03-10T08:42:38.671Z,31.20
2023-03-10T08:45:08.609Z,29.65
2023-03-10T08:50:16.731Z,29.60
2023-03-10T08:52:43.698Z,29.00
2023-03-10T08:55:22.402Z,32.30
2023-03-10T08:58:19.718Z,31.42
2023-03-10T09:00:49.337Z,28.98
2023-03-10T09:03:16.346Z,27.17
2023-03-10T09:05:44.718Z,28.40
2023-03-10T09:08:11.732Z,27.50
2023-03-10T09:10:42.698Z,26.90
2023-03-10T09:13:14.388Z,31.92
2023-03-10T09:15:41.584Z,30.48
2023-03-10T09:18:08.618Z,28.88
2023-03-10T09:20:35.635Z,28.17
2023-03-10T09:23:02.518Z,26.60
2023-03-10T09:25:29.423Z,28.88
2023-03-10T09:27:56.332Z,28.17
2023-03-10T09:30:23.287Z,27.60
2023-03-10T09:32:50.493Z,26.65
2023-03-10T09:35:17.454Z,27.25
2023-03-10T09:37:44.402Z,30.02
2023-03-10T09:40:11.374Z,27.20
2023-03-10T09:42:38.923Z,28.35
2023-03-10T09:45:06.011Z,26.02
2023-03-10T09:47:32.927Z,27.48
2023-03-10T09:49:59.847Z,27.55
2023-03-10T09:52:26.783Z,26.80
2023-03-10T09:54:53.694Z,27.00
2023-03-10T09:57:20.620Z,26.20
2023-03-10T09:59:47.597Z,28.83
2023-03-10T10:02:14.516Z,25.65
2023-03-10T10:04:41.526Z,26.30
2023-03-10T10:07:08.448Z,25.45
2023-03-10T10:09:35.355Z,26.73
2023-03-10T10:12:02.262Z,25.38
2023-03-10T10:14:31.035Z,25.85
2023-03-10T10:16:58.355Z,27.20
2023-03-10T10:19:25.318Z,25.20
2023-03-10T10:21:52.229Z,26.20
2023-03-10T10:24:19.154Z,26.58
2023-03-10T10:26:46.077Z,24.90
2023-03-10T10:29:12.977Z,24.27
2023-03-10T10:31:39.987Z,25.92
2023-03-10T10:34:06.925Z,23.83
2023-03-10T10:36:33.845Z,24.98
2023-03-10T10:39:00.850Z,27.27
2023-03-10T10:41:27.834Z,23.77
2023-03-10T10:43:54.932Z,25.40
2023-03-10T10:46:21.941Z,22.60
2023-03-10T10:48:48.937Z,23.75
2023-03-10T10:51:15.890Z,22.23
2023-03-10T10:53:42.831Z,25.00
2023-03-10T10:56:09.784Z,23.33
2023-03-10T10:58:36.708Z,23.05
2023-03-10T11:01:03.684Z,22.83
2023-03-10T11:03:32.988Z,22.23
2023-03-10T11:06:00.214Z,22.50
2023-03-10T11:08:27.147Z,23.63
2023-03-10T11:10:54.169Z,21.10
2023-03-10T11:13:21.135Z,21.85
2023-03-10T11:15:48.108Z,20.30
2023-03-10T11:18:15.276Z,21.77
2023-03-10T11:20:42.219Z,22.63
2023-03-10T11:23:09.146Z,21.42
2023-03-10T11:25:36.123Z,23.67
2023-03-10T11:28:03.063Z,20.70
2023-03-10T11:30:29.996Z,21.55
2023-03-10T11:32:56.968Z,19.23
2023-03-10T11:35:23.919Z,21.60
2023-03-10T11:37:50.861Z,19.73
2023-03-10T11:40:17.761Z,20.50
2023-03-10T11:42:44.709Z,20.90
2023-03-10T11:45:11.633Z,21.23
2023-03-10T11:47:41.506Z,21.73
2023-03-10T11:50:08.868Z,22.10
2023-03-10T11:52:35.797Z,19.58
2023-03-10T11:55:02.712Z,19.52
2023-03-10T11:57:29.644Z,19.52
2023-03-10T11:59:56.543Z,20.08
2023-03-10T12:02:23.464Z,19.13
2023-03-10T12:04:50.376Z,20.35
2023-03-10T12:07:17.297Z,19.92
2023-03-10T12:09:44.197Z,20.40
2023-03-10T12:12:11.218Z,20.83
2023-03-10T12:14:38.189Z,22.30
2023-03-10T12:17:05.163Z,19.02
2023-03-10T12:19:32.079Z,20.05
2023-03-10T12:21:59.037Z,19.15
2023-03-10T12:24:25.947Z,21.67
2023-03-10T12:26:52.910Z,17.30
2023-03-10T12:29:19.803Z,18.33
2023-03-10T12:31:46.877Z,17.98
2023-03-10T12:34:13.867Z,18.50
2023-03-10T12:36:40.900Z,19.08
2023-03-10T12:39:07.833Z,18.08
2023-03-10T12:41:34.832Z,20.13
2023-03-10T12:44:04.191Z,18.02
2023-03-10T12:46:31.147Z,18.45
2023-03-10T12:48:58.075Z,18.15
2023-03-10T12:51:25.038Z,21.25
2023-03-10T12:53:51.921Z,20.90
2023-03-10T12:56:18.825Z,19.23
2023-03-10T12:58:45.730Z,21.30
2023-03-10T13:01:12.677Z,20.55
2023-03-10T13:03:39.638Z,20.08
2023-03-10T13:06:06.635Z,21.55
2023-03-10T13:08:33.604Z,22.15
2023-03-10T13:11:00.542Z,26.83
2023-03-10T13:13:27.473Z,21.20
2023-03-10T13:15:54.375Z,20.88
2023-03-10T13:18:21.294Z,21.10
2023-03-10T13:20:48.179Z,23.30
2023-03-10T13:23:15.107Z,21.40
2023-03-10T13:25:42.011Z,22.05
2023-03-10T13:28:08.937Z,20.65
2023-03-10T13:30:35.854Z,22.55
2023-03-10T13:33:02.886Z,21.20
2023-03-10T13:35:29.834Z,19.38
2023-03-10T13:37:56.781Z,22.27
2023-03-10T13:40:24.900Z,19.38
2023-03-10T13:42:51.803Z,20.23
2023-03-10T13:45:18.990Z,21.35
2023-03-10T13:47:45.918Z,20.73
2023-03-10T13:50:12.833Z,20.55
2023-03-10T13:52:39.757Z,20.75
2023-03-10T13:55:06.681Z,20.95
2023-03-10T13:57:33.589Z,21.30
2023-03-10T14:00:00.538Z,21.50
2023-03-10T14:02:27.486Z,19.70
2023-03-10T14:04:54.413Z,18.48
2023-03-10T14:07:21.379Z,20.52
2023-03-10T14:09:48.312Z,20.95
2023-03-10T14:12:15.246Z,22.20
2023-03-10T14:14:42.236Z,20.63
2023-03-10T14:17:09.600Z,19.23
2023-03-10T14:19:36.584Z,18.95
2023-03-10T14:22:03.614Z,18.75
2023-03-10T14:24:30.628Z,19.38
2023-03-10T14:26:57.537Z,21.15
2023-03-10T14:29:24.442Z,20.10
2023-03-10T14:31:51.493Z,18.80
2023-03-10T14:34:18.462Z,19.45
2023-03-10T14:36:45.397Z,22.00
2023-03-10T14:39:12.351Z,19.75
2023-03-10T14:41:39.241Z,20.85
2023-03-10T14:44:06.239Z,22.38
2023-03-10T14:46:33.284Z,17.77
2023-03-10T14:49:00.328Z,17.60
2023-03-10T14:51:35.483Z,18.08
2023-03-10T14:54:03.128Z,18.02
2023-03-10T14:56:30.050Z,18.92
2023-03-10T14:58:57.046Z,18.85
2023-03-10T15:01:23.985Z,20.90
2023-03-10T15:03:50.980Z,21.73
2023-03-10T15:06:17.982Z,18.13
2023-03-10T15:08:44.924Z,18.23
2023-03-10T15:11:12.106Z,18.30
2023-03-10T15:13:39.016Z,17.33
2023-03-10T15:16:05.967Z,17.52
2023-03-10T15:18:32.912Z,16.83
2023-03-10T15:20:59.831Z,17.30
2023-03-10T15:23:26.750Z,19.45
2023-03-10T15:25:53.653Z,19.85
2023-03-10T15:28:20.604Z,17.85
2023-03-10T15:30:47.597Z,19.50
2023-03-10T15:33:14.610Z,18.85
2023-03-10T15:35:41.582Z,19.80
2023-03-10T15:38:08.524Z,17.13
2023-03-10T15:40:35.405Z,19.73
2023-03-10T15:43:02.349Z,16.98
2023-03-10T15:45:29.240Z,16.50
2023-03-10T15:47:56.165Z,19.10
2023-03-10T15:50:23.088Z,18.73
2023-03-10T15:52:50.065Z,17.38
2023-03-10T15:55:16.980Z,19.15
2023-03-10T15:57:43.921Z,17.55
2023-03-10T16:00:10.839Z,17.88
2023-03-10T16:02:37.760Z,18.38
2023-03-10T16:05:04.753Z,17.85
2023-03-10T16:07:31.717Z,21.02
2023-03-10T16:09:58.596Z,17.83
2023-03-10T16:12:25.502Z,19.60
2023-03-10T16:14:52.433Z,16.95
2023-03-10T16:17:19.346Z,21.05
2023-03-10T16:19:46.466Z,18.30
2023-03-10T16:22:13.380Z,16.77
2023-03-10T16:24:40.295Z,17.77
2023-03-10T16:27:07.286Z,17.90
2023-03-10T16:29:34.222Z,18.95
2023-03-10T16:32:01.251Z,17.85
2023-03-10T16:34:28.220Z,21.60
2023-03-10T16:36:55.168Z,18.58
2023-03-10T16:39:22.098Z,18.98
2023-03-10T16:41:49.041Z,19.90
2023-03-10T16:44:15.980Z,18.05
2023-03-10T16:46:42.890Z,23.08
2023-03-10T16:49:09.809Z,19.02
2023-03-10T16:51:36.731Z,17.65
2023-03-10T16:54:03.681Z,19.30
2023-03-10T16:56:31.840Z,18.58
2023-03-10T16:59:02.196Z,18.38
2023-03-10T17:01:29.190Z,19.07
2023-03-10T17:03:56.177Z,16.38
2023-03-10T17:06:23.318Z,18.88
2023-03-10T17:08:50.233Z,17.35
2023-03-10T17:11:17.956Z,17.80
2023-03-10T17:13:45.020Z,17.15
2023-03-10T17:16:11.969Z,19.55
2023-03-10T17:18:38.913Z,18.10
2023-03-10T17:21:05.821Z,16.60
2023-03-10T17:23:32.853Z,18.02
2023-03-10T17:25:59.780Z,16.38
2023-03-10T17:28:26.706Z,18.63
2023-03-10T17:30:53.607Z,16.92
2023-03-10T17:33:20.599Z,18.25
2023-03-10T17:35:47.587Z,18.85
2023-03-10T17:38:14.565Z,15.73
2023-03-10T17:40:41.546Z,18.20
2023-03-10T17:43:29.561Z,17.60
2023-03-10T17:45:55.429Z,16.55
2023-03-10T17:48:22.386Z,17.92
2023-03-10T17:50:49.370Z,17.38
2023-03-10T17:53:16.340Z,17.25
2023-03-10T17:55:43.283Z,16.27
2023-03-10T17:58:10.184Z,19.20
2023-03-10T18:00:37.102Z,17.25
2023-03-10T18:03:04.191Z,16.52
2023-03-10T18:05:31.253Z,15.88
2023-03-10T18:07:58.181Z,16.70
2023-03-10T18:10:25.261Z,16.27
2023-03-10T18:12:52.241Z,18.45
2023-03-10T18:15:19.160Z,16.42
2023-03-10T18:17:46.073Z,18.05
2023-03-10T18:20:19.344Z,15.30
2023-03-10T18:22:46.272Z,20.33
2023-03-10T18:25:13.164Z,17.63
2023-03-10T18:30:27.150Z,20.77
2023-03-10T18:32:54.203Z,17.40
2023-03-10T18:35:21.138Z,18.15
2023-03-10T18:37:48.053Z,15.43
2023-03-10T18:40:14.974Z,18.60
2023-03-10T18:42:41.904Z,18.98
2023-03-10T18:45:08.832Z,17.65
2023-03-10T18:47:35.836Z,18.02
2023-03-10T18:50:02.745Z,19.90
2023-03-10T18:52:29.666Z,17.10
2023-03-10T18:54:56.636Z,18.27
2023-03-10T18:57:23.550Z,16.55
2023-03-10T18:59:52.046Z,19.80
2023-03-10T19:02:18.978Z,19.63
2023-03-10T19:04:52.298Z,18.98
2023-03-10T19:07:19.215Z,17.17
2023-03-10T19:09:46.168Z,16.88
2023-03-10T19:12:13.105Z,17.70
2023-03-10T19:14:40.030Z,17.08
2023-03-10T19:17:06.962Z,20.08
2023-03-10T19:19:34.010Z,20.35
2023-03-10T19:22:03.737Z,23.25
2023-03-10T19:24:30.739Z,19.15
2023-03-10T19:26:57.705Z,20.10
2023-03-10T19:29:24.627Z,19.00
2023-03-10T19:31:51.537Z,19.00
2023-03-10T19:34:18.473Z,18.00
2023-03-10T19:36:45.384Z,18.17
2023-03-10T19:39:12.303Z,18.08
2023-03-10T19:41:39.245Z,16.27
2023-03-10T19:44:06.328Z,17.73
2023-03-10T19:46:33.241Z,17.60
2023-03-10T19:49:00.187Z,14.82
2023-03-10T19:51:31.135Z,17.15
2023-03-10T19:53:58.232Z,15.32
2023-03-10T19:56:25.161Z,14.88
2023-03-10T19:58:52.141Z,13.63
2023-03-10T20:01:19.258Z,13.05
2023-03-10T20:03:46.349Z,13.23
2023-03-10T20:06:13.337Z,13.65
2023-03-10T20:08:40.267Z,17.15
2023-03-10T20:11:07.248Z,14.77
2023-03-10T20:13:34.209Z,13.73
2023-03-10T20:16:01.126Z,13.43
2023-03-10T20:18:28.184Z,12.63
2023-03-10T20:20:55.115Z,13.73
2023-03-10T20:23:22.058Z,12.77
2023-03-10T20:25:48.990Z,13.13
2023-03-10T20:28:15.898Z,14.32
2023-03-10T20:30:42.825Z,12.80
2023-03-10T20:33:09.708Z,15.50
2023-03-10T20:35:40.098Z,12.65
2023-03-10T20:38:07.118Z,15.15
2023-03-10T20:40:34.029Z,13.85
2023-03-10T20:43:00.934Z,14.35
2023-03-10T20:45:27.856Z,15.50
2023-03-10T20:47:54.794Z,17.83
2023-03-10T20:50:21.729Z,15.48
2023-03-10T20:52:48.637Z,14.95
2023-03-10T20:55:25.237Z,13.38
2023-03-10T20:57:57.537Z,14.23
2023-03-10T21:03:26.479Z,14.27
2023-03-10T21:06:02.704Z,13.98
2023-03-10T21:08:35.750Z,13.73
2023-03-10T21:16:49.877Z,14.50
2023-03-10T21:19:34.322Z,11.43
2023-03-10T21:22:05.390Z,11.77
2023-03-10T21:41:55.993Z,10.85
2023-03-10T21:52:26.132Z,12.82
2023-03-10T21:57:50.451Z,12.00
2023-03-10T22:00:43.925Z,12.55
2023-03-10T22:03:20.253Z,11.23
2023-03-10T22:08:34.166Z,13.00
2023-03-10T22:13:58.480Z,12.30
2023-03-10T22:16:35.067Z,11.38
2023-03-10T22:19:23.161Z,11.07
2023-03-10T22:22:10.886Z,12.95
2023-03-10T22:24:49.676Z,11.70
2023-03-10T22:32:59.844Z,12.63
2023-03-10T22:35:45.938Z,12.13
2023-03-10T22:38:27.856Z,10.68
2023-03-10T22:41:07.273Z,11.25
2023-03-10T22:49:22.505Z,12.55
2023-03-10T22:51:49.519Z,10.65
2023-03-10T22:54:17.833Z,12.13
2023-03-10T22:56:48.447Z,13.43
2023-03-10T22:59:21.397Z,11.98
2023-03-10T23:04:35.922Z,12.07
2023-03-10T23:07:06.212Z,12.15
2023-03-10T23:09:38.647Z,11.00
2023-03-10T23:17:45.051Z,11.50
2023-03-10T23:28:32.511Z,10.07
2023-03-10T23:33:55.545Z,10.25
2023-03-10T23:42:42.312Z,12.13
2023-03-10T23:44:55.229Z,13.10
2023-03-10T23:59:22.323Z,11.43
